sensor_id;sensor_type;location;lat;lon;timestamp;P1;durP1;ratioP1;P2;durP2;ratioP2
1078;SDS011;528;47.872;11.478;2022-07-25T05:30:18;15.93;;;14.53;;
1078;SDS011;528;47.872;11.478;2022-07-25T05:32:46;17.10;;;15.50;;
1078;SDS011;528;47.872;11.478;2022-07-25T05:35:14;15.63;;;14.33;;
1078;SDS011;528;47.872;11.478;2022-07-25T05:38:06;14.07;;;12.87;;
1078;SDS011;528;47.872;11.478;2022-07-25T05:41:04;16.83;;;15.33;;
1078;SDS011;528;47.872;11.478;2022-07-25T05:43:33;15.37;;;14.07;;
1078;SDS011;528;47.872;11.478;2022-07-25T05:46:02;18.00;;;16.40;;
1078;SDS011;528;47.872;11.478;2022-07-25T05:48:30;18.00;;;16.20;;
1078;SDS011;528;47.872;11.478;2022-07-25T05:50:57;17.57;;;16.00;;
1078;SDS011;528;47.872;11.478;2022-07-25T05:53:24;17.60;;;16.10;;
1078;SDS011;528;47.872;11.478;2022-07-25T05:55:51;17.17;;;15.57;;
1078;SDS011;528;47.872;11.478;2022-07-25T05:58:18;17.67;;;16.07;;
1078;SDS011;528;47.872;11.478;2022-07-25T06:00:45;17.60;;;15.70;;
1078;SDS011;528;47.872;11.478;2022-07-25T06:03:16;17.60;;;16.10;;
1078;SDS011;528;47.872;11.478;2022-07-25T06:05:44;17.60;;;15.90;;
1078;SDS011;528;47.872;11.478;2022-07-25T06:08:11;17.53;;;16.00;;
1078;SDS011;528;47.872;11.478;2022-07-25T06:10:39;18.40;;;16.73;;
1078;SDS011;528;47.872;11.478;2022-07-25T06:13:06;17.93;;;16.37;;
1078;SDS011;528;47.872;11.478;2022-07-25T06:15:33;18.63;;;16.93;;
1078;SDS011;528;47.872;11.478;2022-07-25T06:18:01;18.03;;;16.50;;
1078;SDS011;528;47.872;11.478;2022-07-25T06:20:30;17.60;;;16.10;;
1078;SDS011;528;47.872;11.478;2022-07-25T06:22:57;17.07;;;15.57;;
1078;SDS011;528;47.872;11.478;2022-07-25T06:25:24;17.90;;;16.40;;
1078;SDS011;528;47.872;11.478;2022-07-25T06:27:52;18.37;;;16.77;;
1078;SDS011;528;47.872;11.478;2022-07-25T06:30:19;18.10;;;16.50;;
1078;SDS011;528;47.872;11.478;2022-07-25T06:32:46;18.13;;;16.53;;
1078;SDS011;528;47.872;11.478;2022-07-25T06:35:13;18.77;;;17.10;;
1078;SDS011;528;47.872;11.478;2022-07-25T06:37:42;17.60;;;15.90;;
1078;SDS011;528;47.872;11.478;2022-07-25T06:40:09;19.10;;;17.50;;
1078;SDS011;528;47.872;11.478;2022-07-25T06:42:37;18.27;;;16.70;;
1078;SDS011;528;47.872;11.478;2022-07-25T06:45:05;18.13;;;16.50;;
1078;SDS011;528;47.872;11.478;2022-07-25T06:47:34;18.20;;;16.70;;
1078;SDS011;528;47.872;11.478;2022-07-25T06:50:01;17.87;;;16.40;;
1078;SDS011;528;47.872;11.478;2022-07-25T06:52:30;17.67;;;16.17;;
1078;SDS011;528;47.872;11.478;2022-07-25T06:54:59;16.90;;;15.40;;
1078;SDS011;528;47.872;11.478;2022-07-25T06:57:26;17.83;;;16.33;;
1078;SDS011;528;47.872;11.478;2022-07-25T06:59:53;17.20;;;15.63;;
1078;SDS011;528;47.872;11.478;2022-07-25T07:02:20;17.40;;;15.80;;
1078;SDS011;528;47.872;11.478;2022-07-25T07:04:47;17.63;;;16.07;;
1078;SDS011;528;47.872;11.478;2022-07-25T07:07:15;17.57;;;16.10;;
1078;SDS011;528;47.872;11.478;2022-07-25T07:09:43;17.97;;;16.47;;
1078;SDS011;528;47.872;11.478;2022-07-25T07:12:12;16.77;;;15.40;;
1078;SDS011;528;47.872;11.478;2022-07-25T07:14:39;17.33;;;15.93;;
1078;SDS011;528;47.872;11.478;2022-07-25T07:17:08;17.47;;;16.07;;
1078;SDS011;528;47.872;11.478;2022-07-25T07:19:35;18.07;;;16.47;;
1078;SDS011;528;47.872;11.478;2022-07-25T07:22:07;16.43;;;15.17;;
1078;SDS011;528;47.872;11.478;2022-07-25T07:24:35;17.90;;;16.50;;
1078;SDS011;528;47.872;11.478;2022-07-25T07:27:02;17.10;;;15.70;;
1078;SDS011;528;47.872;11.478;2022-07-25T07:29:31;16.90;;;15.40;;
1078;SDS011;528;47.872;11.478;2022-07-25T07:31:58;16.30;;;15.00;;
1078;SDS011;528;47.872;11.478;2022-07-25T07:34:25;17.00;;;15.70;;
1078;SDS011;528;47.872;11.478;2022-07-25T07:36:53;16.73;;;15.43;;
1078;SDS011;528;47.872;11.478;2022-07-25T07:39:20;16.07;;;14.77;;
1078;SDS011;528;47.872;11.478;2022-07-25T07:47:24;17.77;;;16.27;;
1078;SDS011;528;47.872;11.478;2022-07-25T07:59:18;15.80;;;14.40;;
1078;SDS011;528;47.872;11.478;2022-07-25T08:02:47;16.53;;;15.13;;
1078;SDS011;528;47.872;11.478;2022-07-25T08:05:31;16.23;;;14.90;;
1078;SDS011;528;47.872;11.478;2022-07-25T08:11:34;16.70;;;15.30;;
1078;SDS011;528;47.872;11.478;2022-07-25T08:17:22;15.80;;;14.60;;
1078;SDS011;528;47.872;11.478;2022-07-25T08:50:04;16.37;;;15.17;;
1078;SDS011;528;47.872;11.478;2022-07-25T08:53:05;16.20;;;15.00;;
1078;SDS011;528;47.872;11.478;2022-07-25T09:10:58;14.47;;;13.47;;
1078;SDS011;528;47.872;11.478;2022-07-25T09:13:27;14.03;;;13.03;;
1078;SDS011;528;47.872;11.478;2022-07-25T09:16:10;13.30;;;12.40;;
1078;SDS011;528;47.872;11.478;2022-07-25T09:18:40;12.90;;;12.00;;
1078;SDS011;528;47.872;11.478;2022-07-25T09:21:28;13.50;;;12.50;;
1078;SDS011;528;47.872;11.478;2022-07-25T09:24:08;12.90;;;11.83;;
1078;SDS011;528;47.872;11.478;2022-07-25T09:26:42;12.40;;;11.50;;
1078;SDS011;528;47.872;11.478;2022-07-25T09:29:14;12.97;;;11.97;;
1078;SDS011;528;47.872;11.478;2022-07-25T09:31:47;12.93;;;12.00;;
1078;SDS011;528;47.872;11.478;2022-07-25T09:34:32;13.50;;;12.50;;
1078;SDS011;528;47.872;11.478;2022-07-25T09:37:09;13.47;;;12.37;;
1078;SDS011;528;47.872;11.478;2022-07-25T09:39:44;13.77;;;12.70;;
1078;SDS011;528;47.872;11.478;2022-07-25T09:42:32;12.73;;;11.70;;
1078;SDS011;528;47.872;11.478;2022-07-25T09:45:32;14.00;;;12.80;;
1078;SDS011;528;47.872;11.478;2022-07-25T09:48:18;13.80;;;12.60;;
1078;SDS011;528;47.872;11.478;2022-07-25T09:59:23;12.73;;;11.83;;
1078;SDS011;528;47.872;11.478;2022-07-25T10:01:56;11.13;;;10.33;;
1078;SDS011;528;47.872;11.478;2022-07-25T10:04:41;12.00;;;11.10;;
1078;SDS011;528;47.872;11.478;2022-07-25T10:07:13;11.83;;;10.93;;
1078;SDS011;528;47.872;11.478;2022-07-25T10:09:46;11.67;;;10.87;;
1078;SDS011;528;47.872;11.478;2022-07-25T10:12:20;11.53;;;10.63;;
1078;SDS011;528;47.872;11.478;2022-07-25T10:15:07;10.17;;;9.47;;
1078;SDS011;528;47.872;11.478;2022-07-25T10:17:42;10.70;;;9.90;;
1078;SDS011;528;47.872;11.478;2022-07-25T10:20:12;11.00;;;10.20;;
1078;SDS011;528;47.872;11.478;2022-07-25T10:22:56;10.13;;;9.33;;
1078;SDS011;528;47.872;11.478;2022-07-25T10:25:45;9.37;;;8.60;;
1078;SDS011;528;47.872;11.478;2022-07-25T10:28:19;8.40;;;7.80;;
1078;SDS011;528;47.872;11.478;2022-07-25T10:30:55;8.70;;;8.10;;
1078;SDS011;528;47.872;11.478;2022-07-25T10:33:30;8.93;;;8.33;;
1078;SDS011;528;47.872;11.478;2022-07-25T10:36:08;9.20;;;8.40;;
1078;SDS011;528;47.872;11.478;2022-07-25T10:38:39;8.47;;;7.90;;
1078;SDS011;528;47.872;11.478;2022-07-25T10:41:10;9.70;;;8.80;;
1078;SDS011;528;47.872;11.478;2022-07-25T10:43:39;8.73;;;8.13;;
1078;SDS011;528;47.872;11.478;2022-07-25T10:46:12;9.20;;;8.50;;
1078;SDS011;528;47.872;11.478;2022-07-25T10:48:40;8.57;;;7.80;;
1078;SDS011;528;47.872;11.478;2022-07-25T10:51:09;8.87;;;8.27;;
1078;SDS011;528;47.872;11.478;2022-07-25T10:53:43;8.90;;;8.20;;
1078;SDS011;528;47.872;11.478;2022-07-25T10:56:15;9.47;;;8.83;;
1078;SDS011;528;47.872;11.478;2022-07-25T10:58:48;9.40;;;8.70;;
1078;SDS011;528;47.872;11.478;2022-07-25T11:01:23;9.43;;;8.73;;
1078;SDS011;528;47.872;11.478;2022-07-25T11:04:11;9.90;;;9.00;;
1078;SDS011;528;47.872;11.478;2022-07-25T11:07:08;9.80;;;9.03;;
1078;SDS011;528;47.872;11.478;2022-07-25T11:10:03;9.00;;;8.40;;
1078;SDS011;528;47.872;11.478;2022-07-25T11:12:53;9.10;;;8.40;;
1078;SDS011;528;47.872;11.478;2022-07-25T11:15:20;9.27;;;8.57;;
1078;SDS011;528;47.872;11.478;2022-07-25T11:23:55;8.07;;;7.57;;
1078;SDS011;528;47.872;11.478;2022-07-25T11:26:43;8.27;;;7.57;;
1078;SDS011;528;47.872;11.478;2022-07-25T11:29:19;8.13;;;7.53;;
1078;SDS011;528;47.872;11.478;2022-07-25T11:31:54;8.47;;;7.77;;
1078;SDS011;528;47.872;11.478;2022-07-25T11:34:27;8.10;;;7.50;;
1078;SDS011;528;47.872;11.478;2022-07-25T11:37:00;8.73;;;8.13;;
1078;SDS011;528;47.872;11.478;2022-07-25T11:39:45;8.60;;;8.00;;
1078;SDS011;528;47.872;11.478;2022-07-25T11:42:16;8.23;;;7.63;;
1078;SDS011;528;47.872;11.478;2022-07-25T11:44:51;7.70;;;7.13;;
1078;SDS011;528;47.872;11.478;2022-07-25T11:47:24;8.03;;;7.43;;
1078;SDS011;528;47.872;11.478;2022-07-25T11:50:06;8.27;;;7.77;;
1078;SDS011;528;47.872;11.478;2022-07-25T11:52:39;7.50;;;7.00;;
1078;SDS011;528;47.872;11.478;2022-07-25T11:55:12;8.10;;;7.60;;
1078;SDS011;528;47.872;11.478;2022-07-25T11:57:57;8.20;;;7.60;;
1078;SDS011;528;47.872;11.478;2022-07-25T12:00:26;8.83;;;8.23;;
1078;SDS011;528;47.872;11.478;2022-07-25T12:03:07;8.10;;;7.60;;
1078;SDS011;528;47.872;11.478;2022-07-25T12:05:41;9.60;;;8.73;;
1078;SDS011;528;47.872;11.478;2022-07-25T12:08:18;8.60;;;8.00;;
1078;SDS011;528;47.872;11.478;2022-07-25T12:10:50;8.77;;;8.17;;
1078;SDS011;528;47.872;11.478;2022-07-25T12:13:24;8.83;;;8.23;;
1078;SDS011;528;47.872;11.478;2022-07-25T12:15:54;9.70;;;8.90;;
1078;SDS011;528;47.872;11.478;2022-07-25T12:18:23;9.03;;;8.40;;
1078;SDS011;528;47.872;11.478;2022-07-25T12:21:11;9.63;;;8.93;;
1078;SDS011;528;47.872;11.478;2022-07-25T12:24:04;9.10;;;8.50;;
1078;SDS011;528;47.872;11.478;2022-07-25T12:29:21;9.40;;;8.70;;
1078;SDS011;528;47.872;11.478;2022-07-25T12:31:58;9.27;;;8.30;;
1078;SDS011;528;47.872;11.478;2022-07-25T13:07:49;8.30;;;7.80;;
1078;SDS011;528;47.872;11.478;2022-07-25T13:12:55;9.30;;;8.70;;
1078;SDS011;528;47.872;11.478;2022-07-25T13:15:42;9.00;;;8.10;;
1078;SDS011;528;47.872;11.478;2022-07-25T13:18:47;8.87;;;8.27;;
1078;SDS011;528;47.872;11.478;2022-07-25T13:25:04;8.87;;;8.27;;
1078;SDS011;528;47.872;11.478;2022-07-25T13:27:36;8.50;;;7.97;;
1078;SDS011;528;47.872;11.478;2022-07-25T13:30:30;9.20;;;8.50;;
1078;SDS011;528;47.872;11.478;2022-07-25T15:40:34;9.40;;;8.63;;
1078;SDS011;528;47.872;11.478;2022-07-25T15:43:02;9.63;;;8.93;;
1078;SDS011;528;47.872;11.478;2022-07-25T15:45:33;9.17;;;8.57;;
1078;SDS011;528;47.872;11.478;2022-07-25T15:48:17;8.53;;;8.03;;
1078;SDS011;528;47.872;11.478;2022-07-25T15:50:47;8.80;;;8.20;;
1078;SDS011;528;47.872;11.478;2022-07-25T15:53:31;8.60;;;7.90;;
1078;SDS011;528;47.872;11.478;2022-07-25T15:56:08;8.90;;;8.20;;
1078;SDS011;528;47.872;11.478;2022-07-25T15:58:38;8.73;;;8.10;;
1078;SDS011;528;47.872;11.478;2022-07-25T16:01:23;8.50;;;7.90;;
1078;SDS011;528;47.872;11.478;2022-07-25T16:03:51;9.03;;;8.33;;
1078;SDS011;528;47.872;11.478;2022-07-25T16:06:24;8.40;;;7.80;;
1078;SDS011;528;47.872;11.478;2022-07-25T16:09:04;7.50;;;7.00;;
1078;SDS011;528;47.872;11.478;2022-07-25T16:11:34;8.40;;;7.80;;
1078;SDS011;528;47.872;11.478;2022-07-25T16:14:31;7.80;;;7.30;;
1078;SDS011;528;47.872;11.478;2022-07-25T16:17:02;7.83;;;7.33;;
1078;SDS011;528;47.872;11.478;2022-07-25T16:19:32;8.40;;;7.83;;
1078;SDS011;528;47.872;11.478;2022-07-25T16:21:59;8.13;;;7.43;;
1078;SDS011;528;47.872;11.478;2022-07-25T16:24:28;8.50;;;7.80;;
1078;SDS011;528;47.872;11.478;2022-07-25T16:27:07;9.10;;;8.40;;
1078;SDS011;528;47.872;11.478;2022-07-25T16:29:36;9.10;;;8.40;;
1078;SDS011;528;47.872;11.478;2022-07-25T16:32:05;7.50;;;7.00;;
1078;SDS011;528;47.872;11.478;2022-07-25T16:34:37;8.60;;;8.00;;
1078;SDS011;528;47.872;11.478;2022-07-25T16:37:09;8.33;;;7.67;;
1078;SDS011;528;47.872;11.478;2022-07-25T16:39:41;8.30;;;7.70;;
1078;SDS011;528;47.872;11.478;2022-07-25T16:42:15;7.90;;;7.40;;
1078;SDS011;528;47.872;11.478;2022-07-25T16:45:11;8.70;;;8.10;;
1078;SDS011;528;47.872;11.478;2022-07-25T16:48:06;8.40;;;7.70;;
1078;SDS011;528;47.872;11.478;2022-07-25T16:50:42;8.83;;;8.17;;
1078;SDS011;528;47.872;11.478;2022-07-25T16:53:12;8.30;;;7.70;;
1078;SDS011;528;47.872;11.478;2022-07-25T16:55:48;8.47;;;7.77;;
1078;SDS011;528;47.872;11.478;2022-07-25T16:58:23;7.90;;;7.03;;
1078;SDS011;528;47.872;11.478;2022-07-25T17:00:51;8.40;;;7.80;;
1078;SDS011;528;47.872;11.478;2022-07-25T17:03:24;7.77;;;7.20;;
1078;SDS011;528;47.872;11.478;2022-07-25T17:06:27;8.53;;;7.70;;
1078;SDS011;528;47.872;11.478;2022-07-25T17:09:05;8.10;;;7.30;;
1078;SDS011;528;47.872;11.478;2022-07-25T17:11:48;7.90;;;7.40;;
1078;SDS011;528;47.872;11.478;2022-07-25T17:14:21;8.17;;;7.37;;
1078;SDS011;528;47.872;11.478;2022-07-25T17:17:01;7.73;;;7.20;;
1078;SDS011;528;47.872;11.478;2022-07-25T17:19:45;8.20;;;7.70;;
1078;SDS011;528;47.872;11.478;2022-07-25T17:22:18;8.50;;;7.67;;
1078;SDS011;528;47.872;11.478;2022-07-25T17:25:10;8.37;;;7.57;;
1078;SDS011;528;47.872;11.478;2022-07-25T17:27:52;8.23;;;7.53;;
1078;SDS011;528;47.872;11.478;2022-07-25T17:30:28;8.57;;;7.97;;
1078;SDS011;528;47.872;11.478;2022-07-25T17:33:03;8.53;;;7.93;;
1078;SDS011;528;47.872;11.478;2022-07-25T17:35:53;8.30;;;7.60;;
1078;SDS011;528;47.872;11.478;2022-07-25T17:38:33;8.03;;;7.43;;
1078;SDS011;528;47.872;11.478;2022-07-25T17:41:21;9.10;;;8.40;;
1078;SDS011;528;47.872;11.478;2022-07-25T17:44:02;8.13;;;7.53;;
1078;SDS011;528;47.872;11.478;2022-07-25T17:46:47;8.33;;;7.60;;
1078;SDS011;528;47.872;11.478;2022-07-25T17:49:25;8.47;;;7.77;;
1078;SDS011;528;47.872;11.478;2022-07-25T17:52:18;7.60;;;7.10;;
1078;SDS011;528;47.872;11.478;2022-07-25T17:54:47;8.80;;;8.00;;
1078;SDS011;528;47.872;11.478;2022-07-25T17:57:19;9.73;;;8.80;;
1078;SDS011;528;47.872;11.478;2022-07-25T18:00:02;8.77;;;8.07;;
1078;SDS011;528;47.872;11.478;2022-07-25T18:02:44;8.47;;;7.87;;
1078;SDS011;528;47.872;11.478;2022-07-25T18:05:44;8.67;;;8.07;;
1078;SDS011;528;47.872;11.478;2022-07-25T18:08:17;9.40;;;8.70;;
1078;SDS011;528;47.872;11.478;2022-07-25T18:11:01;8.63;;;8.03;;
1078;SDS011;528;47.872;11.478;2022-07-25T18:13:32;8.37;;;7.77;;
1078;SDS011;528;47.872;11.478;2022-07-25T18:16:06;9.53;;;8.73;;
1078;SDS011;528;47.872;11.478;2022-07-25T18:18:44;10.43;;;9.63;;
1078;SDS011;528;47.872;11.478;2022-07-25T18:21:25;9.70;;;8.90;;
1078;SDS011;528;47.872;11.478;2022-07-25T18:24:04;9.23;;;8.30;;
1078;SDS011;528;47.872;11.478;2022-07-25T18:26:34;9.10;;;8.30;;
1078;SDS011;528;47.872;11.478;2022-07-25T18:29:04;8.83;;;8.13;;
1078;SDS011;528;47.872;11.478;2022-07-25T18:31:43;9.53;;;8.70;;
1078;SDS011;528;47.872;11.478;2022-07-25T18:34:15;8.63;;;7.93;;
1078;SDS011;528;47.872;11.478;2022-07-25T18:36:59;9.77;;;8.97;;
1078;SDS011;528;47.872;11.478;2022-07-25T18:39:29;10.33;;;9.53;;
1078;SDS011;528;47.872;11.478;2022-07-25T18:42:00;10.10;;;9.37;;
1078;SDS011;528;47.872;11.478;2022-07-25T18:44:29;8.83;;;8.03;;
1078;SDS011;528;47.872;11.478;2022-07-25T18:46:59;9.20;;;8.40;;
1078;SDS011;528;47.872;11.478;2022-07-25T18:49:30;9.03;;;8.20;;
1078;SDS011;528;47.872;11.478;2022-07-25T23:58:45;7.70;;;6.63;;
